Thursday, August 16, 2018, 1:56 AM EDT
Back to Local

K40B, Clayton Lake

Location: Ashland, ME, United States Lat: 46.617
Local Time: 1:56 AM EDT ( 5:56 GMT) Lon: -69.533
Time Zone: US/Eastern Elev: 1030 ft

Show me the last for .
Show Coded

Time T Td Feel RH Dir Speed Gust Alt SLP Vis Weather Sky Remarks
2018-08-16 01:16 59 58 - 94 - Calm - 29.90 29.88 0 24-hr Min Temp (1am): 58.8°F
24-hr Max Temp (1am): 83.5°F
2018-08-16 00:17 61 54 - 78 - Calm - 29.90 29.87 0 None
2018-08-15 23:16 60 55 - 80 - Calm - 29.90 29.86 0 None
2018-08-15 22:16 64 57 - 78 - Calm - 29.89 29.86 0 None
2018-08-15 21:16 66 60 - 80 Variable 2 - 29.86 29.83 0 None
2018-08-15 20:16 69 59 - 70 - Calm - 29.83 29.79 0 6-hr Min Temp (8pm): 68.2°F
6-hr Max Temp (8pm): 80.2°F
2018-08-15 19:16 72 61 76 68 - Calm - 29.82 29.78 0 None
2018-08-15 18:16 73 62 77 68 Variable 2 - 29.82 29.78 0 None
2018-08-15 17:16 74 63 78 68 Variable 3 - 29.80 29.76 0 None
2018-08-15 16:16 78 59 80 52 Variable 3 - 29.78 29.74 0 None
2018-08-15 15:16 77 65 80 68 Variable 3 - 29.78 29.75 0 None
2018-08-15 14:16 69 66 - 90 - Calm - 29.80 29.77 0 Peak wind: 37 mph (33 kts) from 200° at 36 min
1-hr Precip Total: 0.06"
6-hr Precip Total (2pm): 0.06"
6-hr Min Temp (2pm): 67.1°F
6-hr Max Temp (2pm): 83.5°F
2018-08-15 13:16 78 64 80 60 Variable 7 14 29.78 29.75 0 None
2018-08-15 12:16 80 69 84 67 Variable 3 - 29.79 29.76 0 None
2018-08-15 11:16 74 67 77 80 Variable 3 12 29.80 29.77 0 None
2018-08-15 10:16 73 70 77 92 Variable 2 - 29.80 29.77 0 None
2018-08-15 09:17 71 70 76 94 Variable 2 - 29.80 29.77 0 None
2018-08-15 08:21 69 69 - 100 - Calm - 29.80 29.77 0 1-hr Precip Total: 0.02"
6-hr Precip Total (8am): 0.26"
24-hr Precip Total (8am): 0.39"
6-hr Min Temp (8am): 65.8°F
6-hr Max Temp (8am): 69.4°F
2018-08-15 07:16 69 69 - 101 200° 12 16 29.79 29.77 0 None
2018-08-15 06:16 67 68 - 102 - Calm - 29.79 29.76 0 1-hr Precip Total: 0.20"
2018-08-15 05:16 67 68 - 102 - Calm - 29.79 29.76 0 1-hr Precip Total: 0.01"
6-hr Precip Total (5am): 0.04"
2018-08-15 04:16 67 68 - 102 - Calm - 29.79 29.76 0 None
2018-08-15 03:16 67 67 - 101 - Calm - 29.79 29.75 0 1-hr Precip Total: 0.04"
2018-08-15 02:16 67 67 - 99 - Calm - 29.80 29.76 0 1-hr Precip Total: 0.12"
6-hr Precip Total (2am): 0.12"
6-hr Min Temp (2am): 67.3°F
6-hr Max Temp (2am): 73.2°F

Support USWX by starting your Amazon purchase here.